Archival Weather

Abadan

Abadan, Iran (OIAA)

Report from: Tuesday, July 19, 2022 7:50 AM UTC
Current time: Wednesday, December 6, 2023 6:49 AM UTC

Current weather – Weather history – Daily summaries
Weather forecast

Temperature46.0°C (114.8°F)
Heat index42.3°C (108.2°F)
Dew point4.0°C (39.2°F)
Winds 6 kts (3.1 m/s, 6.9 mph) Northwest (310°)
Clouds Sky clear
Altimeter29.44 in.Hg (997 mB)
Relative humidity8 %
Density altitude4,106 ft. (1,252 m)
Remarks Ceiling and visibility OK
No significant changes expected in the next two hours
Flight conditions Visual Meteorological Conditions
Raw dataOIAA 190750Z 31006KT CAVOK 46/04 Q0997 NOSIG
An error has occurred. This application may no longer respond until reloaded. Reload 🗙